createdAt,value
2022-10-24T00:00:45.758Z,20.02
2022-10-24T00:03:13.117Z,15.85
2022-10-24T00:05:43.965Z,17.08
2022-10-24T00:08:11.044Z,17.83
2022-10-24T00:10:37.578Z,15.15
2022-10-24T00:13:04.495Z,15.05
2022-10-24T00:15:30.978Z,17.02
2022-10-24T00:17:57.436Z,18.08
2022-10-24T00:20:23.872Z,16.37
2022-10-24T00:22:50.331Z,18.90
2022-10-24T00:25:16.819Z,17.40
2022-10-24T00:27:43.255Z,16.88
2022-10-24T00:30:10.034Z,17.15
2022-10-24T00:32:36.494Z,17.43
2022-10-24T00:35:02.974Z,22.70
2022-10-24T00:37:29.425Z,16.75
2022-10-24T00:39:55.854Z,18.42
2022-10-24T00:42:22.885Z,21.08
2022-10-24T00:44:53.242Z,25.73
2022-10-24T00:47:21.797Z,25.02
2022-10-24T00:50:04.421Z,27.45
2022-10-24T00:52:34.300Z,29.08
2022-10-24T00:55:01.422Z,33.15
2022-10-24T00:57:45.154Z,40.73
2022-10-24T01:00:18.686Z,42.15
2022-10-24T01:02:45.848Z,39.03
2022-10-24T01:05:12.862Z,64.32
2022-10-24T01:08:02.503Z,71.57
2022-10-24T01:10:41.207Z,80.30
2022-10-24T01:13:41.347Z,85.32
2022-10-24T01:16:17.929Z,110.22
2022-10-24T01:21:24.777Z,91.55
2022-10-24T01:24:09.953Z,91.83
2022-10-24T01:27:16.886Z,69.53
2022-10-24T01:29:48.789Z,68.63
2022-10-24T01:32:23.331Z,54.47
2022-10-24T01:34:57.418Z,74.55
2022-10-24T01:37:39.957Z,70.57
2022-10-24T01:40:12.822Z,55.60
2022-10-24T01:42:41.042Z,51.95
2022-10-24T01:45:10.190Z,48.78
2022-10-24T01:47:44.244Z,43.75
2022-10-24T01:50:12.458Z,49.80
2022-10-24T01:52:42.029Z,50.78
2022-10-24T01:55:09.051Z,46.17
2022-10-24T01:57:36.030Z,45.92
2022-10-24T02:00:06.606Z,45.50
2022-10-24T02:02:56.621Z,47.23
2022-10-24T02:05:27.387Z,68.18
2022-10-24T02:07:57.770Z,72.50
2022-10-24T02:10:37.701Z,63.83
2022-10-24T02:13:09.070Z,67.90
2022-10-24T02:15:40.522Z,80.00
2022-10-24T02:18:07.355Z,68.97
2022-10-24T02:20:37.875Z,76.68
2022-10-24T02:23:24.345Z,51.22
2022-10-24T02:25:52.582Z,100.38
2022-10-24T02:28:22.022Z,94.13
2022-10-24T02:31:08.179Z,53.05
2022-10-24T02:33:35.156Z,89.57
2022-10-24T02:36:03.383Z,71.05
2022-10-24T02:38:33.404Z,75.68
2022-10-24T02:41:03.150Z,115.13
2022-10-24T02:43:30.752Z,101.50
2022-10-24T02:45:58.084Z,89.72
2022-10-24T02:48:30.297Z,99.35
2022-10-24T02:50:56.724Z,110.03
2022-10-24T02:53:25.312Z,86.33
2022-10-24T02:55:51.760Z,104.53
2022-10-24T02:58:18.189Z,83.13
2022-10-24T03:00:44.702Z,116.95
2022-10-24T03:03:11.202Z,123.20
2022-10-24T03:05:37.652Z,102.90
2022-10-24T03:08:04.333Z,111.97
2022-10-24T03:10:30.823Z,106.25
2022-10-24T03:12:57.314Z,123.10
2022-10-24T03:15:23.766Z,127.78
2022-10-24T03:17:50.187Z,111.83
2022-10-24T03:20:16.920Z,111.10
2022-10-24T03:22:43.482Z,168.63
2022-10-24T03:25:11.573Z,124.53
2022-10-24T03:27:38.309Z,116.45
2022-10-24T03:30:05.740Z,140.90
2022-10-24T03:32:34.225Z,129.55
2022-10-24T03:35:01.234Z,90.07
2022-10-24T03:37:27.731Z,116.47
2022-10-24T03:39:54.158Z,142.20
2022-10-24T03:42:20.822Z,70.43
2022-10-24T03:44:47.281Z,118.88
2022-10-24T03:47:13.966Z,96.13
2022-10-24T03:49:40.412Z,57.55
2022-10-24T03:52:07.281Z,109.68
2022-10-24T03:54:34.629Z,102.93
2022-10-24T03:57:01.383Z,88.40
2022-10-24T03:59:27.837Z,116.88
2022-10-24T04:01:54.438Z,155.82
2022-10-24T04:04:20.989Z,133.05
2022-10-24T04:06:47.471Z,177.73
2022-10-24T04:09:13.918Z,161.82
2022-10-24T04:11:40.356Z,180.15
2022-10-24T04:14:07.965Z,201.85
2022-10-24T04:16:34.849Z,149.52
2022-10-24T04:19:01.710Z,146.70
2022-10-24T04:21:28.186Z,132.68
2022-10-24T04:23:54.648Z,180.68
2022-10-24T04:26:21.124Z,130.35
2022-10-24T04:28:47.875Z,156.40
2022-10-24T04:31:17.012Z,135.20
2022-10-24T04:33:46.523Z,138.77
2022-10-24T04:36:13.169Z,132.50
2022-10-24T04:38:40.542Z,124.93
2022-10-24T04:41:09.853Z,112.13
2022-10-24T04:43:38.675Z,111.20
2022-10-24T04:46:05.227Z,106.50
2022-10-24T04:48:31.702Z,87.32
2022-10-24T04:50:58.460Z,103.30
2022-10-24T04:53:24.919Z,131.45
2022-10-24T04:55:51.418Z,126.47
2022-10-24T04:58:18.339Z,117.38
2022-10-24T05:00:48.560Z,95.18
2022-10-24T05:03:15.518Z,89.25
2022-10-24T05:05:42.007Z,100.97
2022-10-24T05:08:08.434Z,108.80
2022-10-24T05:10:35.047Z,116.43
2022-10-24T05:13:01.520Z,87.90
2022-10-24T05:15:46.742Z,95.80
2022-10-24T05:18:13.211Z,97.97
2022-10-24T05:23:11.072Z,95.03
2022-10-24T05:25:37.540Z,89.63
2022-10-24T05:28:04.142Z,116.82
2022-10-24T05:30:30.650Z,105.72
2022-10-24T05:32:57.154Z,119.90
2022-10-24T05:35:23.597Z,98.28
2022-10-24T05:37:50.090Z,99.47
2022-10-24T05:40:16.604Z,116.13
2022-10-24T05:42:43.389Z,152.80
2022-10-24T05:45:11.031Z,102.60
2022-10-24T05:47:37.875Z,122.78
2022-10-24T05:50:06.502Z,109.80
2022-10-24T05:52:36.302Z,129.02
2022-10-24T05:55:08.055Z,136.55
2022-10-24T05:57:36.814Z,129.23
2022-10-24T06:00:08.056Z,125.65
2022-10-24T06:02:34.662Z,123.13
2022-10-24T06:05:01.266Z,149.85
2022-10-24T06:07:27.758Z,95.88
2022-10-24T06:09:54.226Z,100.57
2022-10-24T06:12:20.655Z,111.32
2022-10-24T06:14:47.142Z,146.13
2022-10-24T06:17:13.703Z,125.18
2022-10-24T06:19:40.710Z,145.60
2022-10-24T06:22:08.463Z,102.33
2022-10-24T06:24:38.459Z,129.77
2022-10-24T06:27:06.029Z,121.68
2022-10-24T06:29:32.766Z,149.07
2022-10-24T06:31:59.278Z,174.00
2022-10-24T06:34:25.946Z,140.60
2022-10-24T06:36:52.446Z,92.20
2022-10-24T06:39:18.945Z,132.88
2022-10-24T06:41:45.794Z,265.92
2022-10-24T06:44:12.327Z,133.05
2022-10-24T06:46:38.815Z,176.87
2022-10-24T06:49:05.267Z,206.10
2022-10-24T06:51:31.750Z,174.38
2022-10-24T06:53:59.057Z,149.10
2022-10-24T06:56:25.830Z,186.32
2022-10-24T06:58:52.298Z,138.97
2022-10-24T07:01:23.948Z,184.25
2022-10-24T07:03:50.744Z,159.00
2022-10-24T07:08:56.680Z,141.82
2022-10-24T07:11:23.533Z,108.00
2022-10-24T07:13:50.047Z,125.80
2022-10-24T07:16:17.363Z,149.95
2022-10-24T07:18:44.303Z,142.30
2022-10-24T07:21:14.580Z,114.10
2022-10-24T07:23:41.097Z,71.80
2022-10-24T07:26:10.266Z,84.95
2022-10-24T07:28:37.954Z,66.43
2022-10-24T07:31:05.603Z,72.22
2022-10-24T07:33:33.059Z,73.80
2022-10-24T07:35:59.673Z,72.27
2022-10-24T07:38:26.735Z,80.97
2022-10-24T07:40:53.185Z,78.95
2022-10-24T07:43:19.693Z,68.18
2022-10-24T07:45:49.225Z,78.85
2022-10-24T07:48:18.411Z,78.20
2022-10-24T07:50:46.443Z,81.55
2022-10-24T07:53:13.694Z,80.65
2022-10-24T07:55:41.046Z,74.25
2022-10-24T07:58:08.472Z,75.65
2022-10-24T08:00:35.121Z,70.40
2022-10-24T08:03:02.203Z,72.00
2022-10-24T08:05:30.319Z,75.82
2022-10-24T08:08:11.863Z,75.38
2022-10-24T08:10:43.364Z,68.57
2022-10-24T08:13:12.838Z,67.80
2022-10-24T08:15:40.105Z,69.28
2022-10-24T08:18:06.586Z,69.40
2022-10-24T08:20:33.239Z,63.50
2022-10-24T08:22:59.913Z,67.55
2022-10-24T08:25:26.447Z,72.47
2022-10-24T08:27:53.047Z,69.90
2022-10-24T08:30:20.327Z,74.88
2022-10-24T08:32:47.089Z,69.80
2022-10-24T08:35:17.687Z,72.00
2022-10-24T08:37:44.117Z,69.27
2022-10-24T08:40:16.842Z,68.43
2022-10-24T08:42:44.152Z,70.10
2022-10-24T08:45:15.246Z,68.95
2022-10-24T08:47:51.668Z,70.40
2022-10-24T08:50:28.222Z,71.00
2022-10-24T08:53:00.712Z,69.35
2022-10-24T08:55:49.221Z,75.82
2022-10-24T08:58:37.324Z,69.80
2022-10-24T09:01:08.719Z,69.32
2022-10-24T09:03:56.902Z,66.07
2022-10-24T09:06:30.563Z,73.18
2022-10-24T09:09:02.574Z,68.93
2022-10-24T09:11:43.858Z,66.68
2022-10-24T09:14:19.739Z,67.28
2022-10-24T09:16:50.142Z,65.93
2022-10-24T09:19:19.851Z,71.68
2022-10-24T09:21:46.577Z,66.18
2022-10-24T09:24:46.264Z,68.63
2022-10-24T09:27:17.599Z,63.13
2022-10-24T09:29:44.177Z,62.40
2022-10-24T09:32:19.678Z,60.05
2022-10-24T09:34:46.683Z,64.68
2022-10-24T09:37:36.434Z,59.38
2022-10-24T09:40:21.646Z,60.88
2022-10-24T09:43:00.746Z,61.50
2022-10-24T09:45:49.008Z,58.30
2022-10-24T09:48:30.399Z,61.83
2022-10-24T09:50:59.821Z,62.75
2022-10-24T09:53:26.209Z,58.42
2022-10-24T09:55:56.199Z,59.13
2022-10-24T09:58:29.934Z,65.28
2022-10-24T10:01:14.573Z,53.28
2022-10-24T10:03:41.326Z,55.83
2022-10-24T10:06:19.822Z,53.65
2022-10-24T10:08:55.404Z,56.00
2022-10-24T10:11:35.257Z,54.08
2022-10-24T10:14:05.395Z,57.75
2022-10-24T10:16:33.431Z,54.50
2022-10-24T10:19:07.491Z,52.75
2022-10-24T10:21:56.705Z,46.10
2022-10-24T10:24:35.322Z,48.47
2022-10-24T10:27:02.201Z,47.75
2022-10-24T10:29:29.024Z,48.03
2022-10-24T10:32:07.123Z,47.33
2022-10-24T10:34:40.451Z,46.00
2022-10-24T10:37:26.451Z,42.75
2022-10-24T10:40:35.299Z,41.15
2022-10-24T10:43:14.345Z,41.85
2022-10-24T10:45:59.628Z,42.72
2022-10-24T10:48:40.714Z,40.43
2022-10-24T10:51:15.015Z,43.67
2022-10-24T10:53:58.352Z,43.42
2022-10-24T10:56:24.862Z,37.47
2022-10-24T10:59:17.013Z,40.88
2022-10-24T11:02:06.601Z,42.93
2022-10-24T11:05:21.391Z,40.42
2022-10-24T11:07:55.411Z,43.70
2022-10-24T11:10:26.397Z,40.38
2022-10-24T11:12:54.418Z,43.10
2022-10-24T11:15:25.166Z,42.90
2022-10-24T11:18:23.563Z,45.90
2022-10-24T11:20:58.116Z,47.65
2022-10-24T11:23:30.701Z,48.80
2022-10-24T11:26:06.431Z,49.80
2022-10-24T11:28:48.961Z,56.40
2022-10-24T11:31:34.395Z,49.13
2022-10-24T11:34:25.529Z,58.22
2022-10-24T11:36:56.983Z,59.63
2022-10-24T11:39:32.756Z,60.45
2022-10-24T11:42:18.069Z,57.23
2022-10-24T11:44:49.967Z,44.97
2022-10-24T11:47:16.490Z,57.03
2022-10-24T11:49:46.052Z,47.67
2022-10-24T11:52:31.767Z,49.85
2022-10-24T11:55:19.810Z,47.07
2022-10-24T11:57:50.804Z,44.63
2022-10-24T12:00:24.405Z,42.47
2022-10-24T12:03:12.593Z,44.55
2022-10-24T12:06:00.677Z,46.50
2022-10-24T12:08:28.986Z,48.17
2022-10-24T12:11:32.439Z,45.78
2022-10-24T12:14:46.045Z,46.42
2022-10-24T12:17:27.350Z,49.53
2022-10-24T12:19:54.060Z,46.72
2022-10-24T12:25:06.246Z,42.80
2022-10-24T12:27:37.707Z,45.78
2022-10-24T12:30:10.434Z,45.50
2022-10-24T12:32:40.401Z,47.42
2022-10-24T12:35:44.625Z,49.43
2022-10-24T12:38:29.288Z,53.08
2022-10-24T12:40:58.739Z,48.47
2022-10-24T12:43:28.995Z,54.10
2022-10-24T12:45:56.401Z,56.45
2022-10-24T12:48:35.826Z,59.37
2022-10-24T12:51:03.717Z,55.60
2022-10-24T12:53:32.461Z,67.88
2022-10-24T12:55:59.034Z,67.63
2022-10-24T12:58:30.272Z,68.05
2022-10-24T13:00:57.430Z,61.40
2022-10-24T13:03:36.153Z,65.10
2022-10-24T13:06:07.443Z,68.47
2022-10-24T13:08:49.049Z,66.70
2022-10-24T13:11:28.910Z,62.70
2022-10-24T13:14:13.907Z,51.20
2022-10-24T13:17:07.405Z,54.35
2022-10-24T13:19:34.112Z,55.47
2022-10-24T13:22:02.263Z,54.80
2022-10-24T13:24:35.585Z,53.40
2022-10-24T13:27:23.876Z,51.17
2022-10-24T13:29:50.455Z,49.20
2022-10-24T13:32:19.936Z,43.03
2022-10-24T13:34:50.605Z,51.50
2022-10-24T13:37:29.294Z,48.45
2022-10-24T13:39:57.388Z,47.80
2022-10-24T13:42:32.975Z,46.95
2022-10-24T13:45:16.770Z,34.42
2022-10-24T13:47:45.678Z,46.55
2022-10-24T13:50:21.348Z,48.13
2022-10-24T13:52:52.206Z,45.20
2022-10-24T13:55:22.225Z,40.13
2022-10-24T13:58:01.007Z,43.22
2022-10-24T14:00:31.127Z,43.10
2022-10-24T14:02:59.892Z,40.97
2022-10-24T14:05:31.738Z,40.53
2022-10-24T14:08:00.000Z,36.50
2022-10-24T14:10:27.224Z,35.17
2022-10-24T14:12:57.250Z,37.38
2022-10-24T14:15:27.871Z,37.22
2022-10-24T14:18:13.177Z,34.10
2022-10-24T14:20:42.281Z,31.95
2022-10-24T14:23:31.629Z,36.10
2022-10-24T14:26:12.995Z,41.83
2022-10-24T14:28:45.163Z,39.63
2022-10-24T14:31:25.449Z,41.90
2022-10-24T14:33:55.454Z,44.78
2022-10-24T14:36:24.639Z,42.83
2022-10-24T14:38:53.011Z,46.17
2022-10-24T14:41:23.338Z,46.03
2022-10-24T14:43:52.030Z,46.90
2022-10-24T14:46:20.260Z,43.65
2022-10-24T14:48:50.093Z,37.42
2022-10-24T14:51:25.721Z,51.90
2022-10-24T14:53:52.658Z,49.13
2022-10-24T14:56:29.833Z,48.87
2022-10-24T14:58:58.316Z,49.63
2022-10-24T15:01:25.344Z,49.92
2022-10-24T15:03:54.716Z,43.63
2022-10-24T15:06:26.948Z,47.92
2022-10-24T15:09:17.129Z,45.43
2022-10-24T15:12:00.740Z,44.47
2022-10-24T15:14:34.406Z,39.00
2022-10-24T15:17:04.780Z,42.35
2022-10-24T15:19:37.312Z,40.03
2022-10-24T15:22:03.921Z,38.63
2022-10-24T15:24:30.537Z,36.55
2022-10-24T15:27:30.647Z,37.03
2022-10-24T15:29:57.336Z,37.08
2022-10-24T15:32:25.873Z,40.70
2022-10-24T15:34:55.627Z,38.93
2022-10-24T15:37:24.548Z,43.10
2022-10-24T15:39:52.783Z,38.42
2022-10-24T15:42:22.342Z,37.95
2022-10-24T15:44:49.512Z,37.38
2022-10-24T15:47:16.148Z,38.80
2022-10-24T15:49:42.812Z,36.55
2022-10-24T15:52:13.317Z,33.85
2022-10-24T15:54:42.048Z,41.15
2022-10-24T15:57:12.479Z,45.03
2022-10-24T15:59:39.253Z,39.23
2022-10-24T16:02:14.215Z,40.47
2022-10-24T16:04:41.034Z,38.58
2022-10-24T16:09:39.306Z,43.42
2022-10-24T16:12:06.306Z,40.13
2022-10-24T16:14:33.085Z,43.00
2022-10-24T16:16:59.981Z,41.20
2022-10-24T16:19:27.260Z,38.30
2022-10-24T16:21:58.431Z,44.17
2022-10-24T16:24:26.072Z,39.67
2022-10-24T16:26:52.819Z,38.25
2022-10-24T16:29:19.429Z,39.53
2022-10-24T16:31:47.703Z,43.58
2022-10-24T16:34:14.554Z,44.05
2022-10-24T16:36:41.450Z,46.30
2022-10-24T16:39:08.724Z,43.03
2022-10-24T16:41:35.483Z,43.60
2022-10-24T16:44:02.556Z,39.50
2022-10-24T16:46:29.214Z,48.85
2022-10-24T16:48:56.358Z,45.27
2022-10-24T16:51:27.597Z,45.13
2022-10-24T16:53:54.209Z,48.47
2022-10-24T16:56:20.898Z,44.20
2022-10-24T16:58:47.516Z,41.70
2022-10-24T17:01:15.219Z,46.80
2022-10-24T17:03:42.203Z,41.65
2022-10-24T17:06:08.802Z,38.72
2022-10-24T17:08:35.560Z,42.08
2022-10-24T17:11:02.082Z,45.58
2022-10-24T17:13:28.844Z,41.70
2022-10-24T17:15:56.492Z,43.92
2022-10-24T17:18:25.373Z,46.75
2022-10-24T17:20:58.292Z,49.55
2022-10-24T17:23:25.382Z,43.88
2022-10-24T17:25:52.819Z,48.37
2022-10-24T17:28:19.363Z,44.95
2022-10-24T17:30:45.936Z,48.70
2022-10-24T17:33:13.139Z,47.35
2022-10-24T17:35:44.882Z,42.70
2022-10-24T17:38:14.271Z,47.23
2022-10-24T17:40:48.718Z,47.00
2022-10-24T17:43:25.437Z,47.72
2022-10-24T17:45:53.557Z,44.90
2022-10-24T17:48:20.176Z,43.67
2022-10-24T17:50:46.675Z,43.97
2022-10-24T17:53:17.514Z,49.28
2022-10-24T17:55:47.106Z,47.28
2022-10-24T17:58:14.576Z,46.53
2022-10-24T18:00:41.143Z,42.83
2022-10-24T18:03:08.745Z,49.33
2022-10-24T18:05:38.408Z,43.88
2022-10-24T18:08:07.355Z,47.97
2022-10-24T18:10:34.042Z,45.30
2022-10-24T18:13:00.729Z,48.97
2022-10-24T18:15:27.472Z,52.97
2022-10-24T18:17:53.996Z,46.42
2022-10-24T18:20:20.562Z,47.22
2022-10-24T18:22:47.379Z,43.80
2022-10-24T18:25:18.774Z,45.35
2022-10-24T18:27:48.487Z,49.73
2022-10-24T18:30:16.076Z,46.90
2022-10-24T18:32:42.624Z,45.53
2022-10-24T18:35:09.358Z,48.25
2022-10-24T18:37:36.148Z,49.65
2022-10-24T18:40:04.592Z,49.00
2022-10-24T18:42:49.854Z,51.28
2022-10-24T18:45:20.710Z,49.25
2022-10-24T18:47:48.111Z,49.40
2022-10-24T18:50:17.162Z,50.33
2022-10-24T18:53:08.295Z,52.43
2022-10-24T18:55:35.831Z,46.08
2022-10-24T18:58:02.944Z,50.40
2022-10-24T19:00:31.639Z,47.17
2022-10-24T19:03:31.058Z,50.00
2022-10-24T19:06:06.225Z,45.83
2022-10-24T19:08:32.912Z,49.42
2022-10-24T19:11:01.981Z,47.00
2022-10-24T19:13:28.535Z,42.58
2022-10-24T19:16:05.870Z,47.00
2022-10-24T19:18:36.694Z,45.20
2022-10-24T19:21:07.020Z,46.45
2022-10-24T19:23:33.477Z,42.92
2022-10-24T19:25:59.998Z,46.47
2022-10-24T19:28:26.471Z,41.50
2022-10-24T19:30:53.926Z,44.33
2022-10-24T19:33:22.916Z,45.35
2022-10-24T19:35:49.453Z,40.33
2022-10-24T19:38:17.293Z,47.72
2022-10-24T19:40:53.999Z,48.55
2022-10-24T19:43:22.152Z,44.73
2022-10-24T19:46:00.528Z,44.47
2022-10-24T19:48:36.789Z,44.50
2022-10-24T19:51:09.969Z,47.03
2022-10-24T19:53:38.664Z,43.00
2022-10-24T19:56:06.783Z,45.03
2022-10-24T19:58:33.355Z,47.50
2022-10-24T20:01:13.129Z,48.28
2022-10-24T20:03:41.127Z,48.88
2022-10-24T20:06:08.111Z,46.28
2022-10-24T20:08:35.031Z,49.40
2022-10-24T20:11:01.605Z,46.90
2022-10-24T20:13:28.125Z,43.60
2022-10-24T20:15:55.526Z,41.33
2022-10-24T20:18:22.881Z,44.28
2022-10-24T20:20:49.476Z,44.03
2022-10-24T20:23:18.778Z,41.92
2022-10-24T20:25:45.252Z,39.42
2022-10-24T20:28:11.798Z,43.92
2022-10-24T20:30:43.991Z,38.17
2022-10-24T20:33:10.489Z,40.17
2022-10-24T20:35:36.964Z,41.20
2022-10-24T20:38:04.808Z,42.03
2022-10-24T20:40:31.336Z,43.90
2022-10-24T20:42:58.121Z,42.40
2022-10-24T20:45:24.640Z,40.60
2022-10-24T20:47:52.345Z,38.95
2022-10-24T20:50:18.803Z,36.78
2022-10-24T20:52:45.985Z,37.65
2022-10-24T20:55:25.215Z,35.72
2022-10-24T20:58:01.385Z,37.07
2022-10-24T21:00:27.843Z,37.80
2022-10-24T21:02:54.319Z,31.80
2022-10-24T21:05:20.912Z,33.28
2022-10-24T21:07:51.509Z,38.28
2022-10-24T21:10:18.445Z,39.83
2022-10-24T21:12:47.566Z,35.97
2022-10-24T21:15:14.409Z,36.83
2022-10-24T21:17:40.881Z,37.00
2022-10-24T21:20:07.636Z,40.83
2022-10-24T21:22:34.115Z,38.17
2022-10-24T21:25:00.543Z,35.00
2022-10-24T21:27:27.014Z,37.53
2022-10-24T21:29:53.502Z,35.28
2022-10-24T21:32:20.131Z,34.67
2022-10-24T21:34:46.626Z,34.33
2022-10-24T21:37:13.051Z,34.55
2022-10-24T21:39:39.582Z,34.65
2022-10-24T21:42:06.315Z,35.88
2022-10-24T21:44:34.784Z,33.65
2022-10-24T21:47:01.358Z,34.73
2022-10-24T21:49:27.905Z,36.03
2022-10-24T21:51:54.349Z,33.65
2022-10-24T21:54:23.250Z,33.42
2022-10-24T21:56:49.838Z,31.75
2022-10-24T21:59:18.432Z,31.47
2022-10-24T22:01:46.239Z,30.95
2022-10-24T22:04:13.899Z,29.40
2022-10-24T22:06:40.841Z,27.60
2022-10-24T22:09:09.146Z,27.63
2022-10-24T22:11:36.134Z,25.33
2022-10-24T22:14:03.917Z,25.23
2022-10-24T22:16:31.569Z,26.60
2022-10-24T22:19:02.530Z,26.67
2022-10-24T22:21:38.538Z,26.80
2022-10-24T22:26:39.382Z,32.15
2022-10-24T22:29:07.871Z,27.27
2022-10-24T22:31:34.857Z,25.02
2022-10-24T22:34:01.403Z,24.60
2022-10-24T22:37:01.373Z,28.83
2022-10-24T22:39:28.390Z,23.73
2022-10-24T22:41:55.205Z,24.50
2022-10-24T22:44:22.176Z,23.35
2022-10-24T22:47:16.823Z,21.20
2022-10-24T22:50:19.361Z,23.20
2022-10-24T22:52:46.218Z,21.98
2022-10-24T22:55:29.415Z,23.33
2022-10-24T22:57:56.050Z,21.65
2022-10-24T23:00:22.819Z,21.80
2022-10-24T23:02:51.317Z,20.37
2022-10-24T23:05:27.905Z,29.25
2022-10-24T23:08:09.741Z,21.08
2022-10-24T23:10:38.148Z,27.13
2022-10-24T23:13:04.815Z,25.33
2022-10-24T23:15:31.595Z,21.17
2022-10-24T23:17:58.383Z,26.67
2022-10-24T23:20:41.879Z,18.95
2022-10-24T23:23:17.107Z,16.58
2022-10-24T23:25:47.575Z,21.33
2022-10-24T23:28:21.960Z,21.53
2022-10-24T23:30:48.661Z,19.73
2022-10-24T23:33:22.968Z,18.55
2022-10-24T23:35:57.009Z,18.17
2022-10-24T23:38:24.847Z,16.02
2022-10-24T23:40:51.683Z,17.30
2022-10-24T23:43:20.679Z,19.70
2022-10-24T23:46:02.612Z,18.40
2022-10-24T23:48:44.097Z,19.77
2022-10-24T23:51:14.475Z,18.15
2022-10-24T23:53:52.825Z,17.67
2022-10-24T23:56:24.328Z,19.95
2022-10-24T23:58:53.699Z,14.98
